sensor_id;sensor_type;location;lat;lon;timestamp;P1;durP1;ratioP1;P2;durP2;ratioP2
11267;SDS011;72685;47.474;9.416;2024-01-15T00:02:12;4.40;;;2.53;;
11267;SDS011;72685;47.474;9.416;2024-01-15T00:04:38;3.13;;;2.93;;
11267;SDS011;72685;47.474;9.416;2024-01-15T00:07:04;3.83;;;3.00;;
11267;SDS011;72685;47.474;9.416;2024-01-15T00:09:33;3.83;;;3.20;;
11267;SDS011;72685;47.474;9.416;2024-01-15T00:11:59;3.47;;;3.17;;
11267;SDS011;72685;47.474;9.416;2024-01-15T00:14:25;3.83;;;3.07;;
11267;SDS011;72685;47.474;9.416;2024-01-15T00:16:50;3.63;;;3.03;;
11267;SDS011;72685;47.474;9.416;2024-01-15T00:19:19;4.90;;;2.97;;
11267;SDS011;72685;47.474;9.416;2024-01-15T00:21:44;5.37;;;2.90;;
11267;SDS011;72685;47.474;9.416;2024-01-15T00:24:10;3.10;;;2.80;;
11267;SDS011;72685;47.474;9.416;2024-01-15T00:26:35;2.97;;;2.73;;
11267;SDS011;72685;47.474;9.416;2024-01-15T00:29:01;2.60;;;2.40;;
11267;SDS011;72685;47.474;9.416;2024-01-15T00:31:28;3.40;;;3.00;;
11267;SDS011;72685;47.474;9.416;2024-01-15T00:33:54;3.63;;;2.80;;
11267;SDS011;72685;47.474;9.416;2024-01-15T00:36:20;3.47;;;3.10;;
11267;SDS011;72685;47.474;9.416;2024-01-15T00:38:45;3.00;;;2.80;;
11267;SDS011;72685;47.474;9.416;2024-01-15T00:41:12;3.13;;;2.83;;
11267;SDS011;72685;47.474;9.416;2024-01-15T00:43:38;3.87;;;3.13;;
11267;SDS011;72685;47.474;9.416;2024-01-15T00:46:03;3.40;;;3.10;;
11267;SDS011;72685;47.474;9.416;2024-01-15T00:48:29;3.30;;;2.63;;
11267;SDS011;72685;47.474;9.416;2024-01-15T00:50:54;3.83;;;3.03;;
11267;SDS011;72685;47.474;9.416;2024-01-15T00:53:20;3.17;;;2.73;;
11267;SDS011;72685;47.474;9.416;2024-01-15T00:55:47;3.50;;;2.93;;
11267;SDS011;72685;47.474;9.416;2024-01-15T00:58:13;3.40;;;2.60;;
11267;SDS011;72685;47.474;9.416;2024-01-15T01:00:39;3.07;;;2.60;;
11267;SDS011;72685;47.474;9.416;2024-01-15T01:03:04;3.40;;;3.10;;
11267;SDS011;72685;47.474;9.416;2024-01-15T01:05:29;3.13;;;2.90;;
11267;SDS011;72685;47.474;9.416;2024-01-15T01:07:55;3.30;;;3.00;;
11267;SDS011;72685;47.474;9.416;2024-01-15T01:10:20;2.70;;;2.50;;
11267;SDS011;72685;47.474;9.416;2024-01-15T01:12:45;4.20;;;2.90;;
11267;SDS011;72685;47.474;9.416;2024-01-15T01:15:11;2.77;;;2.57;;
11267;SDS011;72685;47.474;9.416;2024-01-15T01:17:36;3.30;;;3.00;;
11267;SDS011;72685;47.474;9.416;2024-01-15T01:20:02;3.23;;;2.93;;
11267;SDS011;72685;47.474;9.416;2024-01-15T01:22:29;3.53;;;3.00;;
11267;SDS011;72685;47.474;9.416;2024-01-15T01:24:55;2.80;;;2.60;;
11267;SDS011;72685;47.474;9.416;2024-01-15T01:27:20;3.80;;;3.00;;
11267;SDS011;72685;47.474;9.416;2024-01-15T01:29:45;2.83;;;2.57;;
11267;SDS011;72685;47.474;9.416;2024-01-15T01:32:11;4.77;;;2.97;;
11267;SDS011;72685;47.474;9.416;2024-01-15T01:34:39;5.13;;;3.37;;
11267;SDS011;72685;47.474;9.416;2024-01-15T01:37:07;4.83;;;3.23;;
11267;SDS011;72685;47.474;9.416;2024-01-15T01:39:32;3.63;;;2.90;;
11267;SDS011;72685;47.474;9.416;2024-01-15T01:41:58;3.20;;;2.90;;
11267;SDS011;72685;47.474;9.416;2024-01-15T01:44:23;3.03;;;2.70;;
11267;SDS011;72685;47.474;9.416;2024-01-15T01:46:48;5.83;;;3.60;;
11267;SDS011;72685;47.474;9.416;2024-01-15T01:49:14;6.90;;;3.90;;
11267;SDS011;72685;47.474;9.416;2024-01-15T01:51:39;4.03;;;3.67;;
11267;SDS011;72685;47.474;9.416;2024-01-15T01:54:04;7.93;;;4.67;;
11267;SDS011;72685;47.474;9.416;2024-01-15T01:56:33;7.77;;;4.60;;
11267;SDS011;72685;47.474;9.416;2024-01-15T01:58:59;8.23;;;5.20;;
11267;SDS011;72685;47.474;9.416;2024-01-15T02:01:25;11.13;;;5.03;;
11267;SDS011;72685;47.474;9.416;2024-01-15T02:03:51;9.03;;;5.60;;
11267;SDS011;72685;47.474;9.416;2024-01-15T02:06:17;7.03;;;5.47;;
11267;SDS011;72685;47.474;9.416;2024-01-15T02:08:43;12.37;;;6.07;;
11267;SDS011;72685;47.474;9.416;2024-01-15T02:11:09;8.00;;;5.53;;
11267;SDS011;72685;47.474;9.416;2024-01-15T02:13:34;8.73;;;5.53;;
11267;SDS011;72685;47.474;9.416;2024-01-15T02:15:59;9.43;;;6.30;;
11267;SDS011;72685;47.474;9.416;2024-01-15T02:18:25;11.17;;;6.50;;
11267;SDS011;72685;47.474;9.416;2024-01-15T02:20:50;9.80;;;6.37;;
11267;SDS011;72685;47.474;9.416;2024-01-15T02:23:15;12.63;;;7.03;;
11267;SDS011;72685;47.474;9.416;2024-01-15T02:25:42;14.93;;;8.30;;
11267;SDS011;72685;47.474;9.416;2024-01-15T02:28:10;13.30;;;8.43;;
11267;SDS011;72685;47.474;9.416;2024-01-15T02:30:37;17.43;;;9.50;;
11267;SDS011;72685;47.474;9.416;2024-01-15T02:33:04;22.80;;;11.80;;
11267;SDS011;72685;47.474;9.416;2024-01-15T02:35:30;21.07;;;11.63;;
11267;SDS011;72685;47.474;9.416;2024-01-15T02:37:55;24.03;;;11.47;;
11267;SDS011;72685;47.474;9.416;2024-01-15T02:40:20;23.80;;;10.90;;
11267;SDS011;72685;47.474;9.416;2024-01-15T02:42:46;23.03;;;11.77;;
11267;SDS011;72685;47.474;9.416;2024-01-15T02:45:11;21.60;;;11.43;;
11267;SDS011;72685;47.474;9.416;2024-01-15T02:47:36;25.53;;;13.13;;
11267;SDS011;72685;47.474;9.416;2024-01-15T02:50:02;29.57;;;12.30;;
11267;SDS011;72685;47.474;9.416;2024-01-15T02:52:27;23.80;;;12.27;;
11267;SDS011;72685;47.474;9.416;2024-01-15T02:54:53;30.80;;;12.63;;
11267;SDS011;72685;47.474;9.416;2024-01-15T02:57:18;25.20;;;13.50;;
11267;SDS011;72685;47.474;9.416;2024-01-15T02:59:43;19.40;;;11.50;;
11267;SDS011;72685;47.474;9.416;2024-01-15T03:02:09;28.93;;;12.57;;
11267;SDS011;72685;47.474;9.416;2024-01-15T03:04:34;23.43;;;11.50;;
11267;SDS011;72685;47.474;9.416;2024-01-15T03:07:00;24.90;;;12.13;;
11267;SDS011;72685;47.474;9.416;2024-01-15T03:09:25;20.57;;;10.27;;
11267;SDS011;72685;47.474;9.416;2024-01-15T03:11:50;22.30;;;10.03;;
11267;SDS011;72685;47.474;9.416;2024-01-15T03:14:16;20.90;;;10.07;;
11267;SDS011;72685;47.474;9.416;2024-01-15T03:16:41;17.57;;;10.10;;
11267;SDS011;72685;47.474;9.416;2024-01-15T03:19:06;19.20;;;9.10;;
11267;SDS011;72685;47.474;9.416;2024-01-15T03:21:32;23.07;;;10.37;;
11267;SDS011;72685;47.474;9.416;2024-01-15T03:23:57;18.63;;;10.87;;
11267;SDS011;72685;47.474;9.416;2024-01-15T03:26:23;22.23;;;10.70;;
11267;SDS011;72685;47.474;9.416;2024-01-15T03:28:48;16.10;;;9.30;;
11267;SDS011;72685;47.474;9.416;2024-01-15T03:31:13;20.00;;;9.67;;
11267;SDS011;72685;47.474;9.416;2024-01-15T03:33:39;16.77;;;8.83;;
11267;SDS011;72685;47.474;9.416;2024-01-15T03:36:04;23.07;;;10.10;;
11267;SDS011;72685;47.474;9.416;2024-01-15T03:38:30;20.27;;;10.30;;
11267;SDS011;72685;47.474;9.416;2024-01-15T03:40:55;19.30;;;10.13;;
11267;SDS011;72685;47.474;9.416;2024-01-15T03:43:21;18.50;;;9.67;;
11267;SDS011;72685;47.474;9.416;2024-01-15T03:45:46;17.37;;;9.83;;
11267;SDS011;72685;47.474;9.416;2024-01-15T03:48:11;16.37;;;8.80;;
11267;SDS011;72685;47.474;9.416;2024-01-15T03:50:37;19.80;;;8.67;;
11267;SDS011;72685;47.474;9.416;2024-01-15T03:53:02;14.90;;;8.37;;
11267;SDS011;72685;47.474;9.416;2024-01-15T03:55:28;17.03;;;8.67;;
11267;SDS011;72685;47.474;9.416;2024-01-15T03:57:53;18.67;;;9.07;;
11267;SDS011;72685;47.474;9.416;2024-01-15T04:00:19;19.17;;;9.30;;
11267;SDS011;72685;47.474;9.416;2024-01-15T04:02:44;19.70;;;8.70;;
11267;SDS011;72685;47.474;9.416;2024-01-15T04:05:09;16.63;;;8.93;;
11267;SDS011;72685;47.474;9.416;2024-01-15T04:07:35;17.97;;;9.03;;
11267;SDS011;72685;47.474;9.416;2024-01-15T04:10:00;21.27;;;9.17;;
11267;SDS011;72685;47.474;9.416;2024-01-15T04:12:26;16.07;;;8.60;;
11267;SDS011;72685;47.474;9.416;2024-01-15T04:14:51;17.13;;;8.60;;
11267;SDS011;72685;47.474;9.416;2024-01-15T04:17:16;15.10;;;7.37;;
11267;SDS011;72685;47.474;9.416;2024-01-15T04:19:45;13.73;;;7.97;;
11267;SDS011;72685;47.474;9.416;2024-01-15T04:22:13;13.97;;;8.47;;
11267;SDS011;72685;47.474;9.416;2024-01-15T04:24:39;14.97;;;8.40;;
11267;SDS011;72685;47.474;9.416;2024-01-15T04:27:05;15.20;;;7.93;;
11267;SDS011;72685;47.474;9.416;2024-01-15T04:29:31;17.87;;;8.37;;
11267;SDS011;72685;47.474;9.416;2024-01-15T04:31:56;14.70;;;8.10;;
11267;SDS011;72685;47.474;9.416;2024-01-15T04:34:22;11.67;;;8.07;;
11267;SDS011;72685;47.474;9.416;2024-01-15T04:36:47;11.60;;;7.67;;
11267;SDS011;72685;47.474;9.416;2024-01-15T04:39:12;10.93;;;6.50;;
11267;SDS011;72685;47.474;9.416;2024-01-15T04:41:38;14.30;;;6.93;;
11267;SDS011;72685;47.474;9.416;2024-01-15T04:44:03;12.93;;;6.20;;
11267;SDS011;72685;47.474;9.416;2024-01-15T04:46:28;11.53;;;6.80;;
11267;SDS011;72685;47.474;9.416;2024-01-15T04:48:54;14.40;;;7.93;;
11267;SDS011;72685;47.474;9.416;2024-01-15T04:51:19;12.73;;;7.13;;
11267;SDS011;72685;47.474;9.416;2024-01-15T04:53:45;11.27;;;6.33;;
11267;SDS011;72685;47.474;9.416;2024-01-15T04:56:10;11.93;;;5.77;;
11267;SDS011;72685;47.474;9.416;2024-01-15T04:58:35;10.33;;;6.20;;
11267;SDS011;72685;47.474;9.416;2024-01-15T05:01:01;12.23;;;5.87;;
11267;SDS011;72685;47.474;9.416;2024-01-15T05:03:26;8.83;;;5.83;;
11267;SDS011;72685;47.474;9.416;2024-01-15T05:05:51;9.93;;;5.63;;
11267;SDS011;72685;47.474;9.416;2024-01-15T05:08:17;10.27;;;5.60;;
11267;SDS011;72685;47.474;9.416;2024-01-15T05:10:42;11.47;;;6.23;;
11267;SDS011;72685;47.474;9.416;2024-01-15T05:13:08;11.97;;;5.77;;
11267;SDS011;72685;47.474;9.416;2024-01-15T05:15:33;9.90;;;5.20;;
11267;SDS011;72685;47.474;9.416;2024-01-15T05:17:58;10.53;;;6.07;;
11267;SDS011;72685;47.474;9.416;2024-01-15T05:20:24;11.03;;;5.13;;
11267;SDS011;72685;47.474;9.416;2024-01-15T05:22:49;8.27;;;4.73;;
11267;SDS011;72685;47.474;9.416;2024-01-15T05:25:14;8.47;;;5.50;;
11267;SDS011;72685;47.474;9.416;2024-01-15T05:27:40;9.90;;;5.57;;
11267;SDS011;72685;47.474;9.416;2024-01-15T05:30:05;7.57;;;4.70;;
11267;SDS011;72685;47.474;9.416;2024-01-15T05:32:31;9.20;;;4.83;;
11267;SDS011;72685;47.474;9.416;2024-01-15T05:34:57;9.97;;;5.43;;
11267;SDS011;72685;47.474;9.416;2024-01-15T05:37:22;6.57;;;4.37;;
11267;SDS011;72685;47.474;9.416;2024-01-15T05:39:47;8.27;;;4.83;;
11267;SDS011;72685;47.474;9.416;2024-01-15T05:42:13;8.43;;;4.87;;
11267;SDS011;72685;47.474;9.416;2024-01-15T05:44:38;8.47;;;5.07;;
11267;SDS011;72685;47.474;9.416;2024-01-15T05:47:03;9.80;;;5.00;;
11267;SDS011;72685;47.474;9.416;2024-01-15T05:49:29;6.83;;;5.10;;
11267;SDS011;72685;47.474;9.416;2024-01-15T05:51:55;7.30;;;5.27;;
11267;SDS011;72685;47.474;9.416;2024-01-15T05:54:20;10.27;;;5.67;;
11267;SDS011;72685;47.474;9.416;2024-01-15T05:56:45;7.83;;;5.37;;
11267;SDS011;72685;47.474;9.416;2024-01-15T05:59:11;5.63;;;4.60;;
11267;SDS011;72685;47.474;9.416;2024-01-15T06:01:36;8.47;;;4.83;;
11267;SDS011;72685;47.474;9.416;2024-01-15T06:04:02;6.57;;;5.03;;
11267;SDS011;72685;47.474;9.416;2024-01-15T06:06:27;8.17;;;4.73;;
11267;SDS011;72685;47.474;9.416;2024-01-15T06:08:52;8.07;;;5.67;;
11267;SDS011;72685;47.474;9.416;2024-01-15T06:11:18;8.50;;;4.87;;
11267;SDS011;72685;47.474;9.416;2024-01-15T06:13:43;9.87;;;5.67;;
11267;SDS011;72685;47.474;9.416;2024-01-15T06:16:15;6.97;;;4.93;;
11267;SDS011;72685;47.474;9.416;2024-01-15T06:18:45;11.23;;;6.53;;
11267;SDS011;72685;47.474;9.416;2024-01-15T06:21:10;7.73;;;5.10;;
11267;SDS011;72685;47.474;9.416;2024-01-15T06:23:37;9.10;;;5.07;;
11267;SDS011;72685;47.474;9.416;2024-01-15T06:26:03;10.37;;;5.50;;
11267;SDS011;72685;47.474;9.416;2024-01-15T06:28:29;9.23;;;5.37;;
11267;SDS011;72685;47.474;9.416;2024-01-15T06:30:54;7.97;;;5.30;;
11267;SDS011;72685;47.474;9.416;2024-01-15T06:33:20;11.20;;;5.97;;
11267;SDS011;72685;47.474;9.416;2024-01-15T06:35:45;9.87;;;5.50;;
11267;SDS011;72685;47.474;9.416;2024-01-15T06:38:10;10.40;;;5.40;;
11267;SDS011;72685;47.474;9.416;2024-01-15T06:40:36;6.47;;;4.13;;
11267;SDS011;72685;47.474;9.416;2024-01-15T06:43:01;10.67;;;5.27;;
11267;SDS011;72685;47.474;9.416;2024-01-15T06:45:26;8.57;;;4.97;;
11267;SDS011;72685;47.474;9.416;2024-01-15T06:47:52;10.27;;;6.20;;
11267;SDS011;72685;47.474;9.416;2024-01-15T06:50:17;8.73;;;5.07;;
11267;SDS011;72685;47.474;9.416;2024-01-15T06:52:42;6.90;;;4.80;;
11267;SDS011;72685;47.474;9.416;2024-01-15T06:55:08;6.87;;;4.57;;
11267;SDS011;72685;47.474;9.416;2024-01-15T06:57:33;7.00;;;5.13;;
11267;SDS011;72685;47.474;9.416;2024-01-15T06:59:58;9.50;;;5.17;;
11267;SDS011;72685;47.474;9.416;2024-01-15T07:02:24;9.77;;;4.83;;
11267;SDS011;72685;47.474;9.416;2024-01-15T07:04:49;9.43;;;5.07;;
11267;SDS011;72685;47.474;9.416;2024-01-15T07:07:14;9.73;;;4.80;;
11267;SDS011;72685;47.474;9.416;2024-01-15T07:09:40;9.77;;;5.37;;
11267;SDS011;72685;47.474;9.416;2024-01-15T07:12:06;6.57;;;4.77;;
11267;SDS011;72685;47.474;9.416;2024-01-15T07:14:31;5.80;;;4.27;;
11267;SDS011;72685;47.474;9.416;2024-01-15T07:16:56;6.17;;;4.47;;
11267;SDS011;72685;47.474;9.416;2024-01-15T07:19:22;9.17;;;5.13;;
11267;SDS011;72685;47.474;9.416;2024-01-15T07:21:47;10.37;;;4.87;;
11267;SDS011;72685;47.474;9.416;2024-01-15T07:24:13;10.50;;;5.00;;
11267;SDS011;72685;47.474;9.416;2024-01-15T07:26:38;6.80;;;4.53;;
11267;SDS011;72685;47.474;9.416;2024-01-15T07:29:03;9.90;;;5.03;;
11267;SDS011;72685;47.474;9.416;2024-01-15T07:31:29;10.30;;;4.60;;
11267;SDS011;72685;47.474;9.416;2024-01-15T07:33:54;7.90;;;4.57;;
11267;SDS011;72685;47.474;9.416;2024-01-15T07:36:20;9.13;;;5.53;;
11267;SDS011;72685;47.474;9.416;2024-01-15T07:38:45;9.00;;;4.80;;
11267;SDS011;72685;47.474;9.416;2024-01-15T07:41:12;6.77;;;4.43;;
11267;SDS011;72685;47.474;9.416;2024-01-15T07:43:38;8.17;;;4.53;;
11267;SDS011;72685;47.474;9.416;2024-01-15T07:46:04;11.37;;;4.77;;
11267;SDS011;72685;47.474;9.416;2024-01-15T07:48:29;7.03;;;4.90;;
11267;SDS011;72685;47.474;9.416;2024-01-15T07:50:54;8.27;;;5.30;;
11267;SDS011;72685;47.474;9.416;2024-01-15T07:53:20;11.20;;;5.77;;
11267;SDS011;72685;47.474;9.416;2024-01-15T07:55:45;8.00;;;5.50;;
11267;SDS011;72685;47.474;9.416;2024-01-15T07:58:11;10.87;;;4.57;;
11267;SDS011;72685;47.474;9.416;2024-01-15T08:00:36;6.53;;;4.47;;
11267;SDS011;72685;47.474;9.416;2024-01-15T08:03:02;8.10;;;6.27;;
11267;SDS011;72685;47.474;9.416;2024-01-15T08:05:28;6.70;;;4.50;;
11267;SDS011;72685;47.474;9.416;2024-01-15T08:07:53;6.50;;;4.93;;
11267;SDS011;72685;47.474;9.416;2024-01-15T08:10:18;7.60;;;4.37;;
11267;SDS011;72685;47.474;9.416;2024-01-15T08:12:44;7.47;;;4.27;;
11267;SDS011;72685;47.474;9.416;2024-01-15T08:15:09;10.23;;;5.40;;
11267;SDS011;72685;47.474;9.416;2024-01-15T08:17:35;7.20;;;4.87;;
11267;SDS011;72685;47.474;9.416;2024-01-15T08:20:00;9.50;;;5.13;;
11267;SDS011;72685;47.474;9.416;2024-01-15T08:22:26;10.67;;;4.43;;
11267;SDS011;72685;47.474;9.416;2024-01-15T08:24:51;8.47;;;5.10;;
11267;SDS011;72685;47.474;9.416;2024-01-15T08:27:17;8.27;;;4.87;;
11267;SDS011;72685;47.474;9.416;2024-01-15T08:29:42;6.13;;;4.87;;
11267;SDS011;72685;47.474;9.416;2024-01-15T08:32:08;11.03;;;5.13;;
11267;SDS011;72685;47.474;9.416;2024-01-15T08:34:39;13.67;;;6.20;;
11267;SDS011;72685;47.474;9.416;2024-01-15T08:37:04;9.10;;;5.07;;
11267;SDS011;72685;47.474;9.416;2024-01-15T08:39:30;19.17;;;6.03;;
11267;SDS011;72685;47.474;9.416;2024-01-15T08:41:55;9.37;;;5.60;;
11267;SDS011;72685;47.474;9.416;2024-01-15T08:44:20;10.80;;;5.97;;
11267;SDS011;72685;47.474;9.416;2024-01-15T08:46:46;11.27;;;6.13;;
11267;SDS011;72685;47.474;9.416;2024-01-15T08:49:11;8.67;;;5.53;;
11267;SDS011;72685;47.474;9.416;2024-01-15T08:51:36;9.10;;;5.57;;
11267;SDS011;72685;47.474;9.416;2024-01-15T08:54:03;13.27;;;5.90;;
11267;SDS011;72685;47.474;9.416;2024-01-15T08:56:28;10.53;;;6.07;;
11267;SDS011;72685;47.474;9.416;2024-01-15T08:58:53;9.73;;;5.77;;
11267;SDS011;72685;47.474;9.416;2024-01-15T09:01:19;11.10;;;5.93;;
11267;SDS011;72685;47.474;9.416;2024-01-15T09:03:44;8.67;;;6.07;;
11267;SDS011;72685;47.474;9.416;2024-01-15T09:06:10;9.67;;;5.27;;
11267;SDS011;72685;47.474;9.416;2024-01-15T09:08:35;12.03;;;6.00;;
11267;SDS011;72685;47.474;9.416;2024-01-15T09:11:01;10.50;;;6.00;;
11267;SDS011;72685;47.474;9.416;2024-01-15T09:13:28;12.37;;;6.23;;
11267;SDS011;72685;47.474;9.416;2024-01-15T09:15:53;14.03;;;6.53;;
11267;SDS011;72685;47.474;9.416;2024-01-15T09:18:18;15.40;;;6.40;;
11267;SDS011;72685;47.474;9.416;2024-01-15T09:20:44;9.57;;;5.87;;
11267;SDS011;72685;47.474;9.416;2024-01-15T09:23:09;11.00;;;5.50;;
11267;SDS011;72685;47.474;9.416;2024-01-15T09:25:35;9.60;;;5.53;;
11267;SDS011;72685;47.474;9.416;2024-01-15T09:28:00;7.53;;;4.50;;
11267;SDS011;72685;47.474;9.416;2024-01-15T09:30:25;9.80;;;6.07;;
11267;SDS011;72685;47.474;9.416;2024-01-15T09:32:51;11.73;;;6.27;;
11267;SDS011;72685;47.474;9.416;2024-01-15T09:35:16;8.17;;;5.93;;
11267;SDS011;72685;47.474;9.416;2024-01-15T09:37:41;11.37;;;5.27;;
11267;SDS011;72685;47.474;9.416;2024-01-15T09:40:08;8.17;;;5.77;;
11267;SDS011;72685;47.474;9.416;2024-01-15T09:42:39;8.83;;;5.33;;
11267;SDS011;72685;47.474;9.416;2024-01-15T09:45:05;7.70;;;5.13;;
11267;SDS011;72685;47.474;9.416;2024-01-15T09:47:31;11.60;;;5.73;;
11267;SDS011;72685;47.474;9.416;2024-01-15T09:49:56;12.57;;;5.23;;
11267;SDS011;72685;47.474;9.416;2024-01-15T09:52:23;10.47;;;5.50;;
11267;SDS011;72685;47.474;9.416;2024-01-15T09:54:50;7.53;;;5.20;;
11267;SDS011;72685;47.474;9.416;2024-01-15T09:57:16;7.97;;;5.23;;
11267;SDS011;72685;47.474;9.416;2024-01-15T09:59:42;11.50;;;5.33;;
11267;SDS011;72685;47.474;9.416;2024-01-15T10:02:08;9.07;;;4.63;;
11267;SDS011;72685;47.474;9.416;2024-01-15T10:04:39;6.20;;;5.07;;
11267;SDS011;72685;47.474;9.416;2024-01-15T10:07:05;5.77;;;4.50;;
11267;SDS011;72685;47.474;9.416;2024-01-15T10:09:33;7.90;;;4.63;;
11267;SDS011;72685;47.474;9.416;2024-01-15T10:11:58;7.50;;;4.50;;
11267;SDS011;72685;47.474;9.416;2024-01-15T10:14:24;8.23;;;4.47;;
11267;SDS011;72685;47.474;9.416;2024-01-15T10:16:49;6.83;;;5.00;;
11267;SDS011;72685;47.474;9.416;2024-01-15T10:19:15;6.47;;;4.83;;
11267;SDS011;72685;47.474;9.416;2024-01-15T10:21:40;6.20;;;4.47;;
11267;SDS011;72685;47.474;9.416;2024-01-15T10:24:05;7.80;;;4.60;;
11267;SDS011;72685;47.474;9.416;2024-01-15T10:26:32;6.70;;;4.53;;
11267;SDS011;72685;47.474;9.416;2024-01-15T10:29:00;5.73;;;4.13;;
11267;SDS011;72685;47.474;9.416;2024-01-15T10:31:26;4.50;;;4.10;;
11267;SDS011;72685;47.474;9.416;2024-01-15T10:33:52;6.37;;;3.80;;
11267;SDS011;72685;47.474;9.416;2024-01-15T10:36:17;7.67;;;4.23;;
11267;SDS011;72685;47.474;9.416;2024-01-15T10:38:43;4.37;;;3.93;;
11267;SDS011;72685;47.474;9.416;2024-01-15T10:41:10;5.47;;;4.00;;
11267;SDS011;72685;47.474;9.416;2024-01-15T10:43:35;5.10;;;4.37;;
11267;SDS011;72685;47.474;9.416;2024-01-15T10:46:00;5.97;;;4.20;;
11267;SDS011;72685;47.474;9.416;2024-01-15T10:48:27;5.33;;;3.93;;
11267;SDS011;72685;47.474;9.416;2024-01-15T10:50:53;6.53;;;4.00;;
11267;SDS011;72685;47.474;9.416;2024-01-15T10:53:19;6.10;;;4.03;;
11267;SDS011;72685;47.474;9.416;2024-01-15T10:55:46;6.23;;;3.70;;
11267;SDS011;72685;47.474;9.416;2024-01-15T10:58:13;4.80;;;3.63;;
11267;SDS011;72685;47.474;9.416;2024-01-15T11:00:40;5.33;;;4.10;;
11267;SDS011;72685;47.474;9.416;2024-01-15T11:03:06;4.47;;;3.60;;
11267;SDS011;72685;47.474;9.416;2024-01-15T11:05:38;4.13;;;3.60;;
11267;SDS011;72685;47.474;9.416;2024-01-15T11:08:07;4.40;;;3.83;;
11267;SDS011;72685;47.474;9.416;2024-01-15T11:10:43;4.57;;;3.23;;
11267;SDS011;72685;47.474;9.416;2024-01-15T11:15:55;6.23;;;3.57;;
11267;SDS011;72685;47.474;9.416;2024-01-15T11:18:22;4.33;;;3.20;;
11267;SDS011;72685;47.474;9.416;2024-01-15T11:21:19;4.40;;;3.60;;
11267;SDS011;72685;47.474;9.416;2024-01-15T11:26:30;4.63;;;4.17;;
11267;SDS011;72685;47.474;9.416;2024-01-15T11:34:20;3.90;;;3.60;;
11267;SDS011;72685;47.474;9.416;2024-01-15T11:41:55;5.17;;;3.47;;
11267;SDS011;72685;47.474;9.416;2024-01-15T11:44:21;3.73;;;3.30;;
11267;SDS011;72685;47.474;9.416;2024-01-15T11:46:53;3.47;;;2.80;;
11267;SDS011;72685;47.474;9.416;2024-01-15T11:49:31;4.73;;;3.67;;
11267;SDS011;72685;47.474;9.416;2024-01-15T11:52:18;4.67;;;3.47;;
11267;SDS011;72685;47.474;9.416;2024-01-15T11:54:51;5.00;;;3.73;;
11267;SDS011;72685;47.474;9.416;2024-01-15T11:57:30;3.53;;;3.20;;
11267;SDS011;72685;47.474;9.416;2024-01-15T12:00:04;5.33;;;3.27;;
11267;SDS011;72685;47.474;9.416;2024-01-15T12:02:31;6.87;;;3.67;;
11267;SDS011;72685;47.474;9.416;2024-01-15T12:04:56;4.43;;;3.50;;
11267;SDS011;72685;47.474;9.416;2024-01-15T12:07:21;3.17;;;2.97;;
11267;SDS011;72685;47.474;9.416;2024-01-15T12:09:47;4.17;;;3.33;;
11267;SDS011;72685;47.474;9.416;2024-01-15T12:12:13;3.83;;;3.13;;
11267;SDS011;72685;47.474;9.416;2024-01-15T12:14:46;3.47;;;3.17;;
11267;SDS011;72685;47.474;9.416;2024-01-15T12:17:11;4.30;;;3.63;;
11267;SDS011;72685;47.474;9.416;2024-01-15T12:19:37;3.87;;;3.27;;
11267;SDS011;72685;47.474;9.416;2024-01-15T12:22:03;4.57;;;3.73;;
11267;SDS011;72685;47.474;9.416;2024-01-15T12:24:28;3.53;;;3.17;;
11267;SDS011;72685;47.474;9.416;2024-01-15T12:26:54;4.30;;;3.90;;
11267;SDS011;72685;47.474;9.416;2024-01-15T12:29:19;12.10;;;3.93;;
11267;SDS011;72685;47.474;9.416;2024-01-15T12:31:48;3.93;;;3.53;;
11267;SDS011;72685;47.474;9.416;2024-01-15T12:34:14;5.57;;;3.50;;
11267;SDS011;72685;47.474;9.416;2024-01-15T12:36:40;4.60;;;3.73;;
11267;SDS011;72685;47.474;9.416;2024-01-15T12:39:06;4.97;;;3.37;;
11267;SDS011;72685;47.474;9.416;2024-01-15T12:41:36;3.67;;;3.20;;
11267;SDS011;72685;47.474;9.416;2024-01-15T12:44:01;4.93;;;3.87;;
11267;SDS011;72685;47.474;9.416;2024-01-15T12:46:26;6.13;;;3.97;;
11267;SDS011;72685;47.474;9.416;2024-01-15T12:48:52;3.80;;;3.43;;
11267;SDS011;72685;47.474;9.416;2024-01-15T12:51:17;4.97;;;3.83;;
11267;SDS011;72685;47.474;9.416;2024-01-15T12:53:43;5.53;;;3.83;;
11267;SDS011;72685;47.474;9.416;2024-01-15T12:56:08;4.73;;;3.17;;
11267;SDS011;72685;47.474;9.416;2024-01-15T12:58:33;6.97;;;3.83;;
11267;SDS011;72685;47.474;9.416;2024-01-15T13:00:59;6.83;;;4.07;;
11267;SDS011;72685;47.474;9.416;2024-01-15T13:03:25;6.10;;;4.03;;
11267;SDS011;72685;47.474;9.416;2024-01-15T13:05:50;6.47;;;3.83;;
11267;SDS011;72685;47.474;9.416;2024-01-15T13:08:17;6.60;;;4.13;;
11267;SDS011;72685;47.474;9.416;2024-01-15T13:10:42;4.07;;;3.67;;
11267;SDS011;72685;47.474;9.416;2024-01-15T13:13:08;8.47;;;3.80;;
11267;SDS011;72685;47.474;9.416;2024-01-15T13:15:33;4.23;;;3.80;;
11267;SDS011;72685;47.474;9.416;2024-01-15T13:17:59;4.13;;;3.63;;
11267;SDS011;72685;47.474;9.416;2024-01-15T13:20:24;4.33;;;3.67;;
11267;SDS011;72685;47.474;9.416;2024-01-15T13:22:49;5.67;;;4.37;;
11267;SDS011;72685;47.474;9.416;2024-01-15T13:25:15;3.87;;;3.47;;
11267;SDS011;72685;47.474;9.416;2024-01-15T13:27:41;4.73;;;4.13;;
11267;SDS011;72685;47.474;9.416;2024-01-15T13:30:06;4.20;;;3.60;;
11267;SDS011;72685;47.474;9.416;2024-01-15T13:32:32;5.13;;;4.03;;
11267;SDS011;72685;47.474;9.416;2024-01-15T13:34:59;4.37;;;3.87;;
11267;SDS011;72685;47.474;9.416;2024-01-15T13:37:25;5.23;;;3.43;;
11267;SDS011;72685;47.474;9.416;2024-01-15T13:39:50;5.07;;;3.93;;
11267;SDS011;72685;47.474;9.416;2024-01-15T13:42:19;5.80;;;4.17;;
11267;SDS011;72685;47.474;9.416;2024-01-15T13:44:47;4.63;;;3.47;;
11267;SDS011;72685;47.474;9.416;2024-01-15T13:47:12;5.87;;;4.13;;
11267;SDS011;72685;47.474;9.416;2024-01-15T13:49:38;3.90;;;3.60;;
11267;SDS011;72685;47.474;9.416;2024-01-15T13:52:04;4.50;;;3.53;;
11267;SDS011;72685;47.474;9.416;2024-01-15T13:54:29;4.43;;;3.80;;
11267;SDS011;72685;47.474;9.416;2024-01-15T13:56:55;3.70;;;3.33;;
11267;SDS011;72685;47.474;9.416;2024-01-15T13:59:21;6.03;;;3.77;;
11267;SDS011;72685;47.474;9.416;2024-01-15T14:01:46;5.07;;;4.17;;
11267;SDS011;72685;47.474;9.416;2024-01-15T14:04:12;3.80;;;3.40;;
11267;SDS011;72685;47.474;9.416;2024-01-15T14:06:38;4.83;;;3.50;;
11267;SDS011;72685;47.474;9.416;2024-01-15T14:09:04;12.63;;;3.53;;
11267;SDS011;72685;47.474;9.416;2024-01-15T14:11:30;5.53;;;3.80;;
11267;SDS011;72685;47.474;9.416;2024-01-15T14:13:55;6.20;;;3.73;;
11267;SDS011;72685;47.474;9.416;2024-01-15T14:16:21;3.70;;;3.00;;
11267;SDS011;72685;47.474;9.416;2024-01-15T14:18:46;4.00;;;3.47;;
11267;SDS011;72685;47.474;9.416;2024-01-15T14:21:11;4.83;;;3.30;;
11267;SDS011;72685;47.474;9.416;2024-01-15T14:23:37;4.20;;;3.70;;
11267;SDS011;72685;47.474;9.416;2024-01-15T14:26:02;7.23;;;3.70;;
11267;SDS011;72685;47.474;9.416;2024-01-15T14:28:29;6.17;;;3.77;;
11267;SDS011;72685;47.474;9.416;2024-01-15T14:30:54;5.20;;;3.37;;
11267;SDS011;72685;47.474;9.416;2024-01-15T14:33:23;4.97;;;3.90;;
11267;SDS011;72685;47.474;9.416;2024-01-15T14:35:48;4.30;;;3.37;;
11267;SDS011;72685;47.474;9.416;2024-01-15T14:38:14;7.10;;;3.80;;
11267;SDS011;72685;47.474;9.416;2024-01-15T14:40:39;4.43;;;3.97;;
11267;SDS011;72685;47.474;9.416;2024-01-15T14:43:04;4.30;;;3.37;;
11267;SDS011;72685;47.474;9.416;2024-01-15T14:45:30;3.73;;;3.03;;
11267;SDS011;72685;47.474;9.416;2024-01-15T14:47:55;4.83;;;3.80;;
11267;SDS011;72685;47.474;9.416;2024-01-15T14:50:22;5.60;;;4.03;;
11267;SDS011;72685;47.474;9.416;2024-01-15T14:52:48;3.30;;;3.00;;